πŸ“Š DonnΓ©es MΓ©tΓ©o - Bordeaux

Total mesures

14,341

TempΓ©rature moyenne

18.8Β°C

Temp. Min/Max

2.9Β° / 42.4Β°

HumiditΓ© moyenne

64.9%

Pression moyenne

1014.7 hPa
enregistrements
ID Date/Heure Temp (Β°C) HumiditΓ© (%) Pression (hPa) Tendance LuminositΓ© (lux) Situation
13541 23/08/2026 23:45 22.0 73.0 1,011.1 β†’ Stable 0 pluvieux-gris (approx.)
13540 23/08/2026 23:30 23.0 68.0 1,011.1 β†’ Stable 0 frais-stable
13539 23/08/2026 23:15 23.1 66.0 1,011.1 β†’ Stable 0 conditions-neutrales-ou-non-definies
13538 23/08/2026 23:00 23.2 65.0 1,011.3 β†’ Stable 0 conditions-neutrales-ou-non-definies
13537 23/08/2026 22:45 23.9 60.0 1,009.9 β†’ Stable 0 conditions-neutrales-ou-non-definies
13536 23/08/2026 22:30 23.6 70.0 1,009.9 β†’ Stable 0 pluvieux-gris (approx.)
13535 23/08/2026 22:15 23.4 75.0 1,009.9 β†’ Stable 0 pluvieux-gris (approx.)
13534 23/08/2026 21:45 22.8 74.0 1,009.7 β†’ Stable 0 pluvieux-gris (approx.)
13533 23/08/2026 21:30 29.0 38.0 1,009.7 β†’ Stable 0 conditions-neutrales-ou-non-definies
13532 23/08/2026 21:15 29.0 39.0 1,009.7 β†’ Stable 0 conditions-neutrales-ou-non-definies
13531 23/08/2026 20:45 29.5 37.0 1,009.0 β†’ Stable 0 conditions-neutrales-ou-non-definies
13530 23/08/2026 20:30 29.8 35.0 1,009.0 β†’ Stable 0 conditions-neutrales-ou-non-definies
13529 23/08/2026 20:15 30.0 35.0 1,009.0 β†’ Stable 0 chaleur-seche
13528 23/08/2026 19:45 30.6 34.0 1,008.4 β†’ Stable 0 chaleur-seche
13527 23/08/2026 19:15 31.4 32.0 1,008.4 β†’ Stable 0 chaleur-seche
13526 23/08/2026 18:45 31.9 31.0 1,008.7 β†’ Stable 924 chaleur-seche
13525 23/08/2026 18:30 32.7 30.0 1,008.7 β†’ Stable 2,688 chaleur-seche
13524 23/08/2026 18:15 32.9 30.0 1,008.7 β†’ Stable 5,184 chaleur-seche
13523 23/08/2026 18:00 33.1 29.0 1,008.7 β†’ Stable 10,464 chaleur-seche
13522 23/08/2026 17:45 33.3 29.0 1,009.3 β†’ Stable 15,276 chaleur-seche
13521 23/08/2026 17:30 34.0 26.0 1,009.3 β†’ Stable 19,164 chaleur-seche
13520 23/08/2026 17:15 34.2 26.0 1,009.3 β†’ Stable 23,244 chaleur-seche
13519 23/08/2026 16:45 34.2 26.0 1,009.8 β†’ Stable 40,464 chaleur-seche
13518 23/08/2026 16:30 34.5 25.0 1,009.8 β†’ Stable 46,764 chaleur-seche
13517 23/08/2026 16:15 34.5 26.0 1,009.8 β†’ Stable 52,224 chaleur-seche
13516 23/08/2026 15:45 34.3 26.0 1,010.3 β†’ Stable 62,124 chaleur-seche
13515 23/08/2026 15:30 34.5 28.0 1,010.3 β†’ Stable 65,652 chaleur-seche
13514 23/08/2026 15:15 34.3 27.0 1,010.3 β†’ Stable 69,720 chaleur-seche
13513 23/08/2026 14:45 33.9 28.0 1,011.0 β†’ Stable 78,060 chaleur-seche
13512 23/08/2026 14:30 33.9 28.0 1,011.0 β†’ Stable 80,832 chaleur-seche
13511 23/08/2026 14:15 33.7 28.0 1,011.0 β†’ Stable 83,892 chaleur-seche
13510 23/08/2026 14:00 33.5 29.0 1,011.0 β†’ Stable 88,332 chaleur-seche
13509 23/08/2026 13:45 33.3 29.0 1,011.8 β†’ Stable 90,744 chaleur-seche
13508 23/08/2026 13:30 33.7 28.0 1,011.8 β†’ Stable 93,240 chaleur-seche
13507 23/08/2026 13:15 33.4 28.0 1,011.4 β†’ Stable 95,004 chaleur-seche
13506 23/08/2026 13:00 33.1 28.0 1,011.4 β†’ Stable 96,948 chaleur-seche
13505 23/08/2026 12:45 32.7 28.0 1,012.2 β†’ Stable 97,968 chaleur-seche
13504 23/08/2026 12:30 32.4 29.0 1,012.2 β†’ Stable 98,148 chaleur-seche
13503 23/08/2026 12:15 32.0 30.0 1,012.2 β†’ Stable 98,424 chaleur-seche
13502 23/08/2026 11:45 31.1 32.0 1,012.8 β†’ Stable 97,776 chaleur-seche
13501 23/08/2026 11:30 30.2 34.0 1,012.8 β†’ Stable 97,128 chaleur-seche
13500 23/08/2026 11:15 29.7 35.0 1,012.8 β†’ Stable 95,928 conditions-neutrales-ou-non-definies
13499 23/08/2026 10:45 28.6 36.0 1,013.6 β†’ Stable 91,200 confortablement-chaud (approx.)
13498 23/08/2026 10:30 27.9 39.0 1,013.6 β†’ Stable 88,980 confortablement-chaud (approx.)
13497 23/08/2026 10:15 27.2 40.0 1,013.6 β†’ Stable 86,388 confortablement-chaud
13496 23/08/2026 10:00 26.5 41.0 1,013.6 β†’ Stable 82,032 confortablement-chaud
13495 23/08/2026 09:45 26.0 42.0 1,013.7 β†’ Stable 78,792 confortablement-chaud
13494 23/08/2026 09:15 25.2 43.0 1,013.7 β†’ Stable 71,760 confortablement-chaud
13493 23/08/2026 09:00 24.5 44.0 1,013.7 β†’ Stable 66,300 confortablement-chaud (approx.)
13492 23/08/2026 08:45 23.9 44.0 1,014.1 β†’ Stable 62,124 conditions-neutrales-ou-non-definies
13491 23/08/2026 08:30 23.9 43.0 1,014.1 β†’ Stable 58,428 conditions-neutrales-ou-non-definies
13490 23/08/2026 08:15 23.2 44.0 1,014.1 β†’ Stable 55,644 conditions-neutrales-ou-non-definies
13489 23/08/2026 08:00 22.6 44.0 1,014.1 β†’ Stable 46,392 frais-stable
13488 23/08/2026 07:45 22.1 45.0 1,014.2 β†’ Stable 41,580 frais-stable
13487 23/08/2026 07:30 21.4 48.0 1,014.2 β†’ Stable 36,852 frais-stable
13486 23/08/2026 07:15 20.8 49.0 1,014.2 β†’ Stable 31,944 frais-stable
13485 23/08/2026 06:45 19.6 52.0 1,014.2 β†’ Stable 20,184 frais-stable
13484 23/08/2026 06:30 18.9 55.0 1,014.2 β†’ Stable 14,820 frais-stable
13483 23/08/2026 06:15 18.4 56.0 1,014.2 β†’ Stable 10,368 frais-stable
13482 23/08/2026 05:45 17.9 56.0 1,013.6 β†’ Stable 2,592 frais-stable
13481 23/08/2026 05:30 18.0 56.0 1,013.6 β†’ Stable 180 frais-stable
13480 23/08/2026 05:15 18.1 55.0 1,013.6 β†’ Stable 0 frais-stable
13479 23/08/2026 04:45 18.2 54.0 1,013.4 β†’ Stable 0 frais-stable
13478 23/08/2026 04:30 18.5 53.0 1,013.4 β†’ Stable 0 frais-stable
13477 23/08/2026 04:15 18.6 52.0 1,013.4 β†’ Stable 0 frais-stable
13476 23/08/2026 04:00 18.7 51.0 1,013.4 β†’ Stable 0 frais-stable
13475 23/08/2026 03:45 18.8 51.0 1,013.6 β†’ Stable 0 frais-stable
13474 23/08/2026 03:30 18.8 52.0 1,013.6 β†’ Stable 0 frais-stable
13473 23/08/2026 03:15 19.0 51.0 1,013.6 β†’ Stable 0 frais-stable
13472 23/08/2026 03:00 19.1 50.0 1,013.6 β†’ Stable 0 frais-stable
13471 23/08/2026 02:45 19.2 50.0 1,013.4 β†’ Stable 0 frais-stable
13470 23/08/2026 02:30 19.5 50.0 1,013.4 β†’ Stable 0 frais-stable
13469 23/08/2026 02:15 19.7 50.0 1,013.4 β†’ Stable 0 frais-stable
13468 23/08/2026 02:00 19.9 49.0 1,013.4 β†’ Stable 0 frais-stable
13467 23/08/2026 01:45 20.0 48.0 1,013.7 β†’ Stable 0 frais-stable
13466 23/08/2026 01:30 20.4 47.0 1,013.7 β†’ Stable 0 frais-stable
13465 23/08/2026 01:15 20.5 46.0 1,013.7 β†’ Stable 0 frais-stable
13464 23/08/2026 00:45 21.0 45.0 1,013.7 β†’ Stable 0 frais-stable
13463 23/08/2026 00:30 21.2 45.0 1,013.7 β†’ Stable 0 frais-stable
13462 23/08/2026 00:15 21.4 44.0 1,013.7 β†’ Stable 0 frais-stable
13461 23/08/2026 00:00 21.6 44.0 1,013.7 β†’ Stable 0 frais-stable
13460 22/08/2026 23:45 21.7 43.0 1,013.8 β†’ Stable 0 frais-stable
13459 22/08/2026 23:30 22.0 42.0 1,013.8 β†’ Stable 0 frais-stable
13458 22/08/2026 23:15 22.1 42.0 1,013.9 β†’ Stable 0 frais-stable
13457 22/08/2026 22:45 22.4 42.0 1,014.0 β†’ Stable 0 frais-stable
13456 22/08/2026 22:15 22.5 44.0 1,014.0 β†’ Stable 0 frais-stable
13455 22/08/2026 21:45 22.7 44.0 1,014.0 β†’ Stable 0 frais-stable
13454 22/08/2026 21:30 22.8 44.0 1,014.0 β†’ Stable 0 frais-stable
13453 22/08/2026 21:15 23.1 43.0 1,014.0 β†’ Stable 0 conditions-neutrales-ou-non-definies
13452 22/08/2026 21:00 23.4 43.0 1,014.0 β†’ Stable 0 conditions-neutrales-ou-non-definies
13451 22/08/2026 20:45 23.6 42.0 1,014.0 β†’ Stable 0 conditions-neutrales-ou-non-definies
13450 22/08/2026 20:15 24.3 40.0 1,014.0 β†’ Stable 0 confortablement-chaud (approx.)
13449 22/08/2026 19:45 24.8 38.0 1,013.3 β†’ Stable 0 conditions-neutrales-ou-non-definies
13448 22/08/2026 19:30 25.7 35.0 1,013.3 β†’ Stable 0 conditions-neutrales-ou-non-definies
13447 22/08/2026 19:15 25.9 34.0 1,013.3 β†’ Stable 0 conditions-neutrales-ou-non-definies
13446 22/08/2026 18:45 26.4 33.0 1,013.5 β†’ Stable 1,668 conditions-neutrales-ou-non-definies
13445 22/08/2026 18:30 26.9 30.0 1,013.5 β†’ Stable 5,928 conditions-neutrales-ou-non-definies
13444 22/08/2026 18:15 27.2 29.0 1,013.5 β†’ Stable 11,016 conditions-neutrales-ou-non-definies
13443 22/08/2026 17:45 27.6 29.0 1,013.6 β†’ Stable 20,088 conditions-neutrales-ou-non-definies
13442 22/08/2026 17:30 27.9 29.0 1,013.6 β†’ Stable 25,368 conditions-neutrales-ou-non-definies